sensor_id;sensor_type;location;lat;lon;timestamp;temperature;humidity
26272;DHT22;13997;48.902;12.472;2023-03-01T00:01:25;0.90;2201.60
26272;DHT22;13997;48.902;12.472;2023-03-01T00:03:52;0.90;2201.60
26272;DHT22;13997;48.902;12.472;2023-03-01T00:06:18;0.90;2201.60
26272;DHT22;13997;48.902;12.472;2023-03-01T00:08:44;0.90;2201.60
26272;DHT22;13997;48.902;12.472;2023-03-01T00:11:16;0.90;2201.60
26272;DHT22;13997;48.902;12.472;2023-03-01T00:13:44;0.80;2201.60
26272;DHT22;13997;48.902;12.472;2023-03-01T00:16:17;0.80;2201.60
26272;DHT22;13997;48.902;12.472;2023-03-01T00:18:43;0.80;2201.60
26272;DHT22;13997;48.902;12.472;2023-03-01T00:21:09;0.80;2201.60
26272;DHT22;13997;48.902;12.472;2023-03-01T00:23:36;0.80;2201.60
26272;DHT22;13997;48.902;12.472;2023-03-01T00:26:05;0.70;2201.60
26272;DHT22;13997;48.902;12.472;2023-03-01T00:28:31;0.70;2201.60
26272;DHT22;13997;48.902;12.472;2023-03-01T00:31:03;0.60;2201.60
26272;DHT22;13997;48.902;12.472;2023-03-01T00:33:29;0.60;2201.60
26272;DHT22;13997;48.902;12.472;2023-03-01T00:35:54;0.60;2201.60
26272;DHT22;13997;48.902;12.472;2023-03-01T00:38:20;0.60;2201.60
26272;DHT22;13997;48.902;12.472;2023-03-01T00:40:45;0.60;2201.60
26272;DHT22;13997;48.902;12.472;2023-03-01T00:43:11;0.60;2201.60
26272;DHT22;13997;48.902;12.472;2023-03-01T00:45:36;0.50;2201.60
26272;DHT22;13997;48.902;12.472;2023-03-01T00:48:02;0.50;2201.60
26272;DHT22;13997;48.902;12.472;2023-03-01T00:50:28;0.50;2201.60
26272;DHT22;13997;48.902;12.472;2023-03-01T00:52:55;0.50;2201.60
26272;DHT22;13997;48.902;12.472;2023-03-01T00:55:21;0.50;2201.60
26272;DHT22;13997;48.902;12.472;2023-03-01T00:57:47;0.50;2201.60
26272;DHT22;13997;48.902;12.472;2023-03-01T01:00:13;0.40;2201.60
26272;DHT22;13997;48.902;12.472;2023-03-01T01:02:40;0.40;2201.60
26272;DHT22;13997;48.902;12.472;2023-03-01T01:05:06;0.40;2201.60
26272;DHT22;13997;48.902;12.472;2023-03-01T01:07:32;0.30;2201.60
26272;DHT22;13997;48.902;12.472;2023-03-01T01:09:57;0.30;2201.60
26272;DHT22;13997;48.902;12.472;2023-03-01T01:12:23;0.20;2201.60
26272;DHT22;13997;48.902;12.472;2023-03-01T01:14:49;0.20;2201.60
26272;DHT22;13997;48.902;12.472;2023-03-01T01:17:14;0.20;2201.60
26272;DHT22;13997;48.902;12.472;2023-03-01T01:19:40;0.10;2201.60
26272;DHT22;13997;48.902;12.472;2023-03-01T01:22:06;0.10;2201.60
26272;DHT22;13997;48.902;12.472;2023-03-01T01:24:31;0.10;2201.60
26272;DHT22;13997;48.902;12.472;2023-03-01T01:26:57;0.10;2201.60
26272;DHT22;13997;48.902;12.472;2023-03-01T01:29:22;0.10;2201.60
26272;DHT22;13997;48.902;12.472;2023-03-01T01:31:48;0.10;2201.60
26272;DHT22;13997;48.902;12.472;2023-03-01T01:34:16;0.10;2201.60
26272;DHT22;13997;48.902;12.472;2023-03-01T01:36:47;0.00;2201.60
26272;DHT22;13997;48.902;12.472;2023-03-01T01:39:13;0.00;2201.60
26272;DHT22;13997;48.902;12.472;2023-03-01T01:41:40;0.00;2201.60
26272;DHT22;13997;48.902;12.472;2023-03-01T01:47:02;0.00;2201.60
26272;DHT22;13997;48.902;12.472;2023-03-01T01:49:51;0.00;2201.60
26272;DHT22;13997;48.902;12.472;2023-03-01T02:00:06;0.10;2201.60
26272;DHT22;13997;48.902;12.472;2023-03-01T02:02:32;0.10;2201.60
26272;DHT22;13997;48.902;12.472;2023-03-01T02:05:13;0.00;2201.60
26272;DHT22;13997;48.902;12.472;2023-03-01T02:07:41;0.00;2201.60
26272;DHT22;13997;48.902;12.472;2023-03-01T02:10:08;0.00;2201.60
26272;DHT22;13997;48.902;12.472;2023-03-01T02:12:36;0.00;2201.60
26272;DHT22;13997;48.902;12.472;2023-03-01T02:15:04;0.00;2201.60
26272;DHT22;13997;48.902;12.472;2023-03-01T02:17:30;0.00;2201.60
26272;DHT22;13997;48.902;12.472;2023-03-01T02:22:28;12.90;2201.60
26272;DHT22;13997;48.902;12.472;2023-03-01T02:30:37;12.90;2201.60
26272;DHT22;13997;48.902;12.472;2023-03-01T02:33:23;12.90;2201.60
26272;DHT22;13997;48.902;12.472;2023-03-01T02:35:49;13.00;2201.60
26272;DHT22;13997;48.902;12.472;2023-03-01T02:38:15;13.10;2201.60
26272;DHT22;13997;48.902;12.472;2023-03-01T02:40:40;13.10;2201.60
26272;DHT22;13997;48.902;12.472;2023-03-01T02:43:08;13.20;2201.60
26272;DHT22;13997;48.902;12.472;2023-03-01T02:45:35;13.20;2201.60
26272;DHT22;13997;48.902;12.472;2023-03-01T02:48:01;13.20;2201.60
26272;DHT22;13997;48.902;12.472;2023-03-01T02:53:14;13.30;2201.60
26272;DHT22;13997;48.902;12.472;2023-03-01T02:55:41;13.30;2201.60
26272;DHT22;13997;48.902;12.472;2023-03-01T02:58:07;13.40;2201.60
26272;DHT22;13997;48.902;12.472;2023-03-01T03:00:39;13.50;2201.60
26272;DHT22;13997;48.902;12.472;2023-03-01T03:03:16;13.50;2201.60
26272;DHT22;13997;48.902;12.472;2023-03-01T03:05:42;13.50;2201.60
26272;DHT22;13997;48.902;12.472;2023-03-01T03:08:08;13.50;2201.60
26272;DHT22;13997;48.902;12.472;2023-03-01T03:10:37;13.50;2201.60
26272;DHT22;13997;48.902;12.472;2023-03-01T03:13:11;13.50;2201.60
26272;DHT22;13997;48.902;12.472;2023-03-01T03:15:38;13.50;2201.60
26272;DHT22;13997;48.902;12.472;2023-03-01T03:18:11;13.50;2201.60
26272;DHT22;13997;48.902;12.472;2023-03-01T03:20:37;13.50;2201.60
26272;DHT22;13997;48.902;12.472;2023-03-01T03:23:04;13.50;2201.60
26272;DHT22;13997;48.902;12.472;2023-03-01T03:25:30;13.50;2201.60
26272;DHT22;13997;48.902;12.472;2023-03-01T03:27:57;13.50;2201.60
26272;DHT22;13997;48.902;12.472;2023-03-01T03:30:27;13.60;2201.60
26272;DHT22;13997;48.902;12.472;2023-03-01T03:32:54;13.60;2201.60
26272;DHT22;13997;48.902;12.472;2023-03-01T03:35:21;13.60;2201.60
26272;DHT22;13997;48.902;12.472;2023-03-01T03:37:48;13.60;2201.60
26272;DHT22;13997;48.902;12.472;2023-03-01T03:40:50;13.60;2201.60
26272;DHT22;13997;48.902;12.472;2023-03-01T03:43:21;13.60;2201.60
26272;DHT22;13997;48.902;12.472;2023-03-01T03:45:49;13.60;2201.60
26272;DHT22;13997;48.902;12.472;2023-03-01T03:48:14;13.60;2201.60
26272;DHT22;13997;48.902;12.472;2023-03-01T03:50:41;13.70;2201.60
26272;DHT22;13997;48.902;12.472;2023-03-01T03:53:09;13.70;2201.60
26272;DHT22;13997;48.902;12.472;2023-03-01T03:55:35;13.70;2201.60
26272;DHT22;13997;48.902;12.472;2023-03-01T03:58:05;13.70;2201.60
26272;DHT22;13997;48.902;12.472;2023-03-01T04:00:40;13.70;2201.60
26272;DHT22;13997;48.902;12.472;2023-03-01T04:03:06;13.70;2201.60
26272;DHT22;13997;48.902;12.472;2023-03-01T04:05:32;38.40;2201.60
26272;DHT22;13997;48.902;12.472;2023-03-01T04:07:58;38.40;2201.60
26272;DHT22;13997;48.902;12.472;2023-03-01T04:10:31;38.40;2201.60
26272;DHT22;13997;48.902;12.472;2023-03-01T04:12:57;38.40;2201.60
26272;DHT22;13997;48.902;12.472;2023-03-01T04:15:24;38.40;2201.60
26272;DHT22;13997;48.902;12.472;2023-03-01T04:17:52;38.40;2201.60
26272;DHT22;13997;48.902;12.472;2023-03-01T04:20:20;38.50;2201.60
26272;DHT22;13997;48.902;12.472;2023-03-01T04:23:01;38.50;2201.60
26272;DHT22;13997;48.902;12.472;2023-03-01T04:28:23;38.50;2201.60
26272;DHT22;13997;48.902;12.472;2023-03-01T04:30:57;38.50;2201.60
26272;DHT22;13997;48.902;12.472;2023-03-01T04:33:24;38.60;2201.60
26272;DHT22;13997;48.902;12.472;2023-03-01T04:35:50;38.60;2201.60
26272;DHT22;13997;48.902;12.472;2023-03-01T04:38:19;38.60;2201.60
26272;DHT22;13997;48.902;12.472;2023-03-01T04:40:46;38.60;2201.60
26272;DHT22;13997;48.902;12.472;2023-03-01T04:43:12;38.70;2201.60
26272;DHT22;13997;48.902;12.472;2023-03-01T04:45:43;38.70;2201.60
26272;DHT22;13997;48.902;12.472;2023-03-01T04:48:08;38.70;2201.60
26272;DHT22;13997;48.902;12.472;2023-03-01T04:50:34;38.70;2201.60
26272;DHT22;13997;48.902;12.472;2023-03-01T04:53:00;38.70;2201.60
26272;DHT22;13997;48.902;12.472;2023-03-01T04:55:27;38.70;2201.60
26272;DHT22;13997;48.902;12.472;2023-03-01T04:57:53;38.80;2201.60
26272;DHT22;13997;48.902;12.472;2023-03-01T05:00:19;38.80;2201.60
26272;DHT22;13997;48.902;12.472;2023-03-01T05:02:53;38.80;2201.60
26272;DHT22;13997;48.902;12.472;2023-03-01T05:05:21;38.80;2201.60
26272;DHT22;13997;48.902;12.472;2023-03-01T05:07:47;38.80;2201.60
26272;DHT22;13997;48.902;12.472;2023-03-01T05:10:12;38.90;2201.60
26272;DHT22;13997;48.902;12.472;2023-03-01T05:12:38;38.90;2201.60
26272;DHT22;13997;48.902;12.472;2023-03-01T05:15:04;38.90;2201.60
26272;DHT22;13997;48.902;12.472;2023-03-01T05:17:33;38.90;2201.60
26272;DHT22;13997;48.902;12.472;2023-03-01T05:19:59;38.90;2201.60
26272;DHT22;13997;48.902;12.472;2023-03-01T05:22:25;39.00;2201.60
26272;DHT22;13997;48.902;12.472;2023-03-01T05:24:51;39.00;2201.60
26272;DHT22;13997;48.902;12.472;2023-03-01T05:27:16;39.00;2201.60
26272;DHT22;13997;48.902;12.472;2023-03-01T05:29:42;39.00;2201.60
26272;DHT22;13997;48.902;12.472;2023-03-01T05:32:07;39.00;2201.60
26272;DHT22;13997;48.902;12.472;2023-03-01T05:34:35;39.00;2201.60
26272;DHT22;13997;48.902;12.472;2023-03-01T05:37:02;39.00;2201.60
26272;DHT22;13997;48.902;12.472;2023-03-01T05:39:29;39.00;2201.60
26272;DHT22;13997;48.902;12.472;2023-03-01T05:41:59;39.00;2201.60
26272;DHT22;13997;48.902;12.472;2023-03-01T05:44:27;39.00;2201.60
26272;DHT22;13997;48.902;12.472;2023-03-01T05:46:54;39.10;2201.60
26272;DHT22;13997;48.902;12.472;2023-03-01T05:49:20;39.20;2201.60
26272;DHT22;13997;48.902;12.472;2023-03-01T05:51:50;39.30;2201.60
26272;DHT22;13997;48.902;12.472;2023-03-01T05:54:17;39.30;2201.60
26272;DHT22;13997;48.902;12.472;2023-03-01T05:56:44;39.30;2201.60
26272;DHT22;13997;48.902;12.472;2023-03-01T05:59:10;39.30;2201.60
26272;DHT22;13997;48.902;12.472;2023-03-01T06:01:37;39.30;2201.60
26272;DHT22;13997;48.902;12.472;2023-03-01T06:04:04;39.30;2201.60
26272;DHT22;13997;48.902;12.472;2023-03-01T06:06:33;39.30;2201.60
26272;DHT22;13997;48.902;12.472;2023-03-01T06:08:58;39.20;2201.60
26272;DHT22;13997;48.902;12.472;2023-03-01T06:11:24;39.20;2201.60
26272;DHT22;13997;48.902;12.472;2023-03-01T06:13:50;39.20;2201.60
26272;DHT22;13997;48.902;12.472;2023-03-01T06:16:15;39.20;2201.60
26272;DHT22;13997;48.902;12.472;2023-03-01T06:18:41;39.10;2201.60
26272;DHT22;13997;48.902;12.472;2023-03-01T06:21:07;39.00;2201.60
26272;DHT22;13997;48.902;12.472;2023-03-01T06:23:33;39.00;2201.60
26272;DHT22;13997;48.902;12.472;2023-03-01T06:25:59;38.90;2201.60
26272;DHT22;13997;48.902;12.472;2023-03-01T06:28:25;38.90;2201.60
26272;DHT22;13997;48.902;12.472;2023-03-01T06:30:51;38.90;2201.60
26272;DHT22;13997;48.902;12.472;2023-03-01T06:33:17;38.90;2201.60
26272;DHT22;13997;48.902;12.472;2023-03-01T06:35:45;38.80;2201.60
26272;DHT22;13997;48.902;12.472;2023-03-01T06:38:11;38.80;2201.60
26272;DHT22;13997;48.902;12.472;2023-03-01T06:40:37;38.80;2201.60
26272;DHT22;13997;48.902;12.472;2023-03-01T06:43:02;38.70;2201.60
26272;DHT22;13997;48.902;12.472;2023-03-01T06:45:28;38.60;2201.60
26272;DHT22;13997;48.902;12.472;2023-03-01T06:48:02;38.50;2201.60
26272;DHT22;13997;48.902;12.472;2023-03-01T06:50:28;38.50;2201.60
26272;DHT22;13997;48.902;12.472;2023-03-01T06:52:57;38.40;2201.60
26272;DHT22;13997;48.902;12.472;2023-03-01T06:55:23;38.40;2201.60
26272;DHT22;13997;48.902;12.472;2023-03-01T06:57:54;13.60;2201.60
26272;DHT22;13997;48.902;12.472;2023-03-01T07:00:20;13.60;2201.60
26272;DHT22;13997;48.902;12.472;2023-03-01T07:02:46;13.50;2201.60
26272;DHT22;13997;48.902;12.472;2023-03-01T07:05:11;13.50;2201.60
26272;DHT22;13997;48.902;12.472;2023-03-01T07:07:37;13.40;2201.60
26272;DHT22;13997;48.902;12.472;2023-03-01T07:10:03;13.30;2201.60
26272;DHT22;13997;48.902;12.472;2023-03-01T07:12:29;13.20;2201.60
26272;DHT22;13997;48.902;12.472;2023-03-01T07:14:54;13.20;2201.60
26272;DHT22;13997;48.902;12.472;2023-03-01T07:17:20;13.10;2201.60
26272;DHT22;13997;48.902;12.472;2023-03-01T07:19:45;13.00;2201.60
26272;DHT22;13997;48.902;12.472;2023-03-01T07:22:11;13.00;2201.60
26272;DHT22;13997;48.902;12.472;2023-03-01T07:24:36;13.00;2201.60
26272;DHT22;13997;48.902;12.472;2023-03-01T07:27:02;12.90;2201.60
26272;DHT22;13997;48.902;12.472;2023-03-01T07:29:28;12.90;2201.60
26272;DHT22;13997;48.902;12.472;2023-03-01T07:31:54;0.00;2201.60
26272;DHT22;13997;48.902;12.472;2023-03-01T07:34:20;0.10;2201.60
26272;DHT22;13997;48.902;12.472;2023-03-01T07:36:45;0.20;2201.60
26272;DHT22;13997;48.902;12.472;2023-03-01T07:39:11;0.50;2201.60
26272;DHT22;13997;48.902;12.472;2023-03-01T07:41:37;0.60;2201.60
26272;DHT22;13997;48.902;12.472;2023-03-01T07:44:03;0.80;2201.60
26272;DHT22;13997;48.902;12.472;2023-03-01T07:46:28;25.60;2201.60
26272;DHT22;13997;48.902;12.472;2023-03-01T07:48:54;25.70;2201.60
26272;DHT22;13997;48.902;12.472;2023-03-01T07:51:19;25.70;2201.60
26272;DHT22;13997;48.902;12.472;2023-03-01T07:53:48;25.80;2201.60
26272;DHT22;13997;48.902;12.472;2023-03-01T07:56:15;25.90;2201.60
26272;DHT22;13997;48.902;12.472;2023-03-01T07:58:44;26.00;2201.60
26272;DHT22;13997;48.902;12.472;2023-03-01T08:01:16;26.20;2201.60
26272;DHT22;13997;48.902;12.472;2023-03-01T08:03:42;26.40;2201.60
26272;DHT22;13997;48.902;12.472;2023-03-01T08:06:09;51.30;2227.20
26272;DHT22;13997;48.902;12.472;2023-03-01T08:08:36;51.50;2227.20
26272;DHT22;13997;48.902;12.472;2023-03-01T08:11:03;51.60;2227.20
26272;DHT22;13997;48.902;12.472;2023-03-01T08:13:30;51.80;2227.20
26272;DHT22;13997;48.902;12.472;2023-03-01T08:16:08;51.90;2227.20
26272;DHT22;13997;48.902;12.472;2023-03-01T08:18:33;52.10;2227.20
26272;DHT22;13997;48.902;12.472;2023-03-01T08:21:07;76.90;2227.20
26272;DHT22;13997;48.902;12.472;2023-03-01T08:23:33;77.00;2227.20
26272;DHT22;13997;48.902;12.472;2023-03-01T08:26:14;77.20;2227.20
26272;DHT22;13997;48.902;12.472;2023-03-01T08:28:40;77.10;2227.20
26272;DHT22;13997;48.902;12.472;2023-03-01T08:31:21;77.20;2227.20
26272;DHT22;13997;48.902;12.472;2023-03-01T08:33:48;77.30;2227.20
26272;DHT22;13997;48.902;12.472;2023-03-01T08:36:16;77.50;2227.20
26272;DHT22;13997;48.902;12.472;2023-03-01T08:38:42;77.70;2227.20
26272;DHT22;13997;48.902;12.472;2023-03-01T08:41:08;102.40;2227.20
26272;DHT22;13997;48.902;12.472;2023-03-01T08:43:33;102.50;2227.20
26272;DHT22;13997;48.902;12.472;2023-03-01T08:45:59;102.50;2227.20
26272;DHT22;13997;48.902;12.472;2023-03-01T08:48:25;102.50;2227.20
26272;DHT22;13997;48.902;12.472;2023-03-01T08:50:50;102.60;2227.20
26272;DHT22;13997;48.902;12.472;2023-03-01T08:53:16;102.70;2227.20
26272;DHT22;13997;48.902;12.472;2023-03-01T08:55:41;102.70;2227.20
26272;DHT22;13997;48.902;12.472;2023-03-01T08:58:07;102.80;2227.20
26272;DHT22;13997;48.902;12.472;2023-03-01T09:00:33;102.90;2227.20
26272;DHT22;13997;48.902;12.472;2023-03-01T09:03:00;103.00;2227.20
26272;DHT22;13997;48.902;12.472;2023-03-01T09:05:26;103.10;2227.20
26272;DHT22;13997;48.902;12.472;2023-03-01T09:07:51;103.00;2227.20
26272;DHT22;13997;48.902;12.472;2023-03-01T09:10:17;103.00;2227.20
26272;DHT22;13997;48.902;12.472;2023-03-01T09:12:42;103.10;2227.20
26272;DHT22;13997;48.902;12.472;2023-03-01T09:15:08;103.20;2227.20
26272;DHT22;13997;48.902;12.472;2023-03-01T09:17:34;128.00;2252.80
26272;DHT22;13997;48.902;12.472;2023-03-01T09:20:00;128.10;2252.80
26272;DHT22;13997;48.902;12.472;2023-03-01T09:22:26;128.20;2252.80
26272;DHT22;13997;48.902;12.472;2023-03-01T09:24:51;128.20;2252.80
26272;DHT22;13997;48.902;12.472;2023-03-01T09:27:17;128.30;2252.80
26272;DHT22;13997;48.902;12.472;2023-03-01T09:29:44;128.20;2252.80
26272;DHT22;13997;48.902;12.472;2023-03-01T09:32:10;128.10;2252.80
26272;DHT22;13997;48.902;12.472;2023-03-01T09:34:36;128.20;2252.80
26272;DHT22;13997;48.902;12.472;2023-03-01T09:37:22;128.10;2252.80
26272;DHT22;13997;48.902;12.472;2023-03-01T09:39:47;128.30;2252.80
26272;DHT22;13997;48.902;12.472;2023-03-01T09:42:13;128.40;2252.80
26272;DHT22;13997;48.902;12.472;2023-03-01T09:44:50;128.40;2252.80
26272;DHT22;13997;48.902;12.472;2023-03-01T09:47:20;128.50;2252.80
26272;DHT22;13997;48.902;12.472;2023-03-01T09:50:03;128.80;2252.80
26272;DHT22;13997;48.902;12.472;2023-03-01T09:55:40;153.80;2252.80
26272;DHT22;13997;48.902;12.472;2023-03-01T09:58:31;154.00;2252.80
26272;DHT22;13997;48.902;12.472;2023-03-01T10:04:02;154.00;2252.80
26272;DHT22;13997;48.902;12.472;2023-03-01T10:06:30;154.20;2252.80
26272;DHT22;13997;48.902;12.472;2023-03-01T10:09:13;154.30;2252.80
26272;DHT22;13997;48.902;12.472;2023-03-01T10:11:47;154.20;2252.80
26272;DHT22;13997;48.902;12.472;2023-03-01T10:16:51;179.20;2252.80
26272;DHT22;13997;48.902;12.472;2023-03-01T10:19:45;179.30;2252.80
26272;DHT22;13997;48.902;12.472;2023-03-01T10:22:22;179.50;2252.80
26272;DHT22;13997;48.902;12.472;2023-03-01T10:24:51;179.40;2252.80
26272;DHT22;13997;48.902;12.472;2023-03-01T10:32:32;179.60;2252.80
26272;DHT22;13997;48.902;12.472;2023-03-01T10:34:58;179.70;2252.80
26272;DHT22;13997;48.902;12.472;2023-03-01T10:37:24;179.90;2252.80
26272;DHT22;13997;48.902;12.472;2023-03-01T10:42:34;204.80;2252.80
26272;DHT22;13997;48.902;12.472;2023-03-01T10:47:41;204.80;2252.80
26272;DHT22;13997;48.902;12.472;2023-03-01T10:50:21;204.90;2252.80
26272;DHT22;13997;48.902;12.472;2023-03-01T10:53:00;204.80;2252.80
26272;DHT22;13997;48.902;12.472;2023-03-01T10:55:35;180.10;2252.80
26272;DHT22;13997;48.902;12.472;2023-03-01T10:58:21;204.90;2252.80
26272;DHT22;13997;48.902;12.472;2023-03-01T11:00:53;205.00;2252.80
26272;DHT22;13997;48.902;12.472;2023-03-01T11:03:22;205.10;2252.80
26272;DHT22;13997;48.902;12.472;2023-03-01T11:06:02;205.00;2252.80
26272;DHT22;13997;48.902;12.472;2023-03-01T11:08:40;205.10;2252.80
26272;DHT22;13997;48.902;12.472;2023-03-01T11:11:33;205.30;2252.80
26272;DHT22;13997;48.902;12.472;2023-03-01T11:16:49;205.40;2252.80
26272;DHT22;13997;48.902;12.472;2023-03-01T11:19:23;205.30;2252.80
26272;DHT22;13997;48.902;12.472;2023-03-01T11:24:45;205.30;2252.80
26272;DHT22;13997;48.902;12.472;2023-03-01T11:30:15;205.30;2252.80
26272;DHT22;13997;48.902;12.472;2023-03-01T11:32:47;205.20;2252.80
26272;DHT22;13997;48.902;12.472;2023-03-01T11:35:20;205.30;2252.80
26272;DHT22;13997;48.902;12.472;2023-03-01T11:40:43;205.30;2252.80
26272;DHT22;13997;48.902;12.472;2023-03-01T11:43:35;205.20;2252.80
26272;DHT22;13997;48.902;12.472;2023-03-01T12:02:40;205.10;2252.80
26272;DHT22;13997;48.902;12.472;2023-03-01T12:05:18;205.30;2252.80
26272;DHT22;13997;48.902;12.472;2023-03-01T12:08:25;205.20;2252.80
26272;DHT22;13997;48.902;12.472;2023-03-01T12:11:23;205.20;2252.80
26272;DHT22;13997;48.902;12.472;2023-03-01T12:14:45;205.20;2252.80
26272;DHT22;13997;48.902;12.472;2023-03-01T12:17:20;205.20;2252.80
26272;DHT22;13997;48.902;12.472;2023-03-01T12:25:37;205.20;2252.80
26272;DHT22;13997;48.902;12.472;2023-03-01T12:30:48;205.30;2252.80
26272;DHT22;13997;48.902;12.472;2023-03-01T12:38:42;205.70;2252.80
26272;DHT22;13997;48.902;12.472;2023-03-01T12:41:28;230.40;2252.80
26272;DHT22;13997;48.902;12.472;2023-03-01T12:44:20;230.50;2252.80
26272;DHT22;13997;48.902;12.472;2023-03-01T12:47:16;230.60;2252.80
26272;DHT22;13997;48.902;12.472;2023-03-01T12:49:57;230.40;2252.80
26272;DHT22;13997;48.902;12.472;2023-03-01T12:54:51;230.40;2252.80
26272;DHT22;13997;48.902;12.472;2023-03-01T12:57:27;230.50;2252.80
26272;DHT22;13997;48.902;12.472;2023-03-01T13:02:49;230.60;2252.80
26272;DHT22;13997;48.902;12.472;2023-03-01T13:05:41;230.60;2252.80
26272;DHT22;13997;48.902;12.472;2023-03-01T13:08:22;230.50;2252.80
26272;DHT22;13997;48.902;12.472;2023-03-01T13:10:58;230.50;2252.80
26272;DHT22;13997;48.902;12.472;2023-03-01T13:13:27;230.50;2252.80
26272;DHT22;13997;48.902;12.472;2023-03-01T13:15:53;230.60;2252.80
26272;DHT22;13997;48.902;12.472;2023-03-01T13:20:55;230.80;2252.80
26272;DHT22;13997;48.902;12.472;2023-03-01T13:28:38;230.80;2252.80
26272;DHT22;13997;48.902;12.472;2023-03-01T13:31:08;230.80;2252.80
26272;DHT22;13997;48.902;12.472;2023-03-01T13:33:47;230.90;2252.80
26272;DHT22;13997;48.902;12.472;2023-03-01T13:39:27;231.00;2252.80
26272;DHT22;13997;48.902;12.472;2023-03-01T13:41:55;230.90;2252.80
26272;DHT22;13997;48.902;12.472;2023-03-01T13:44:38;230.90;2252.80
26272;DHT22;13997;48.902;12.472;2023-03-01T13:49:47;230.70;2252.80
26272;DHT22;13997;48.902;12.472;2023-03-01T13:52:39;230.60;2252.80
26272;DHT22;13997;48.902;12.472;2023-03-01T13:57:42;230.70;2252.80
26272;DHT22;13997;48.902;12.472;2023-03-01T14:00:30;230.60;2252.80
26272;DHT22;13997;48.902;12.472;2023-03-01T14:03:19;230.50;2252.80
26272;DHT22;13997;48.902;12.472;2023-03-01T14:06:04;230.60;2252.80
26272;DHT22;13997;48.902;12.472;2023-03-01T14:08:34;230.60;2252.80
26272;DHT22;13997;48.902;12.472;2023-03-01T14:13:39;230.80;2252.80
26272;DHT22;13997;48.902;12.472;2023-03-01T14:16:22;230.80;2252.80
26272;DHT22;13997;48.902;12.472;2023-03-01T14:18:58;230.80;2252.80
26272;DHT22;13997;48.902;12.472;2023-03-01T14:21:27;230.80;2252.80
26272;DHT22;13997;48.902;12.472;2023-03-01T14:23:52;230.80;2252.80
26272;DHT22;13997;48.902;12.472;2023-03-01T14:26:22;230.90;2252.80
26272;DHT22;13997;48.902;12.472;2023-03-01T14:28:49;230.70;2252.80
26272;DHT22;13997;48.902;12.472;2023-03-01T14:31:37;230.70;2252.80
26272;DHT22;13997;48.902;12.472;2023-03-01T14:34:04;230.60;2252.80
26272;DHT22;13997;48.902;12.472;2023-03-01T14:36:31;230.60;2252.80
26272;DHT22;13997;48.902;12.472;2023-03-01T14:38:57;230.60;2252.80
26272;DHT22;13997;48.902;12.472;2023-03-01T14:41:33;230.70;2252.80
26272;DHT22;13997;48.902;12.472;2023-03-01T14:44:03;230.70;2252.80
26272;DHT22;13997;48.902;12.472;2023-03-01T14:46:33;230.80;2252.80
26272;DHT22;13997;48.902;12.472;2023-03-01T14:49:16;230.80;2252.80
26272;DHT22;13997;48.902;12.472;2023-03-01T14:51:48;230.80;2252.80
26272;DHT22;13997;48.902;12.472;2023-03-01T14:54:28;230.80;2252.80
26272;DHT22;13997;48.902;12.472;2023-03-01T14:56:59;230.90;2252.80
26272;DHT22;13997;48.902;12.472;2023-03-01T14:59:25;230.90;2252.80
26272;DHT22;13997;48.902;12.472;2023-03-01T15:01:53;230.80;2252.80
26272;DHT22;13997;48.902;12.472;2023-03-01T15:04:23;230.80;2252.80
26272;DHT22;13997;48.902;12.472;2023-03-01T15:06:54;230.80;2252.80
26272;DHT22;13997;48.902;12.472;2023-03-01T15:09:21;230.70;2252.80
26272;DHT22;13997;48.902;12.472;2023-03-01T15:11:47;230.70;2252.80
26272;DHT22;13997;48.902;12.472;2023-03-01T15:14:39;230.70;2252.80
26272;DHT22;13997;48.902;12.472;2023-03-01T15:17:21;230.70;2252.80
26272;DHT22;13997;48.902;12.472;2023-03-01T15:19:49;230.70;2252.80
26272;DHT22;13997;48.902;12.472;2023-03-01T15:22:16;230.70;2252.80
26272;DHT22;13997;48.902;12.472;2023-03-01T15:24:47;230.70;2252.80
26272;DHT22;13997;48.902;12.472;2023-03-01T15:27:17;230.60;2252.80
26272;DHT22;13997;48.902;12.472;2023-03-01T15:30:04;230.60;2252.80
26272;DHT22;13997;48.902;12.472;2023-03-01T15:32:35;230.60;2252.80
26272;DHT22;13997;48.902;12.472;2023-03-01T15:38:33;230.60;2252.80
26272;DHT22;13997;48.902;12.472;2023-03-01T15:41:04;230.60;2252.80
26272;DHT22;13997;48.902;12.472;2023-03-01T15:43:45;230.50;2252.80
26272;DHT22;13997;48.902;12.472;2023-03-01T15:48:59;230.40;2252.80
26272;DHT22;13997;48.902;12.472;2023-03-01T15:51:37;205.70;2252.80
26272;DHT22;13997;48.902;12.472;2023-03-01T15:54:06;205.60;2252.80
26272;DHT22;13997;48.902;12.472;2023-03-01T15:56:35;205.60;2252.80
26272;DHT22;13997;48.902;12.472;2023-03-01T15:59:01;205.50;2252.80
26272;DHT22;13997;48.902;12.472;2023-03-01T16:01:28;205.40;2252.80
26272;DHT22;13997;48.902;12.472;2023-03-01T16:03:54;205.30;2252.80
26272;DHT22;13997;48.902;12.472;2023-03-01T16:06:19;205.30;2252.80
26272;DHT22;13997;48.902;12.472;2023-03-01T16:08:45;205.20;2252.80
26272;DHT22;13997;48.902;12.472;2023-03-01T16:11:19;205.10;2252.80
26272;DHT22;13997;48.902;12.472;2023-03-01T16:13:45;205.10;2252.80
26272;DHT22;13997;48.902;12.472;2023-03-01T16:16:12;205.00;2252.80
26272;DHT22;13997;48.902;12.472;2023-03-01T16:18:41;204.90;2252.80
26272;DHT22;13997;48.902;12.472;2023-03-01T16:21:12;204.90;2252.80
26272;DHT22;13997;48.902;12.472;2023-03-01T16:23:38;204.80;2252.80
26272;DHT22;13997;48.902;12.472;2023-03-01T16:26:03;180.10;2252.80
26272;DHT22;13997;48.902;12.472;2023-03-01T16:28:29;180.00;2252.80
26272;DHT22;13997;48.902;12.472;2023-03-01T16:30:54;180.00;2252.80
26272;DHT22;13997;48.902;12.472;2023-03-01T16:33:20;179.90;2252.80
26272;DHT22;13997;48.902;12.472;2023-03-01T16:35:45;179.80;2252.80
26272;DHT22;13997;48.902;12.472;2023-03-01T16:38:11;179.70;2252.80
26272;DHT22;13997;48.902;12.472;2023-03-01T16:40:37;179.70;2252.80
26272;DHT22;13997;48.902;12.472;2023-03-01T16:43:02;179.60;2252.80
26272;DHT22;13997;48.902;12.472;2023-03-01T16:45:33;179.50;2252.80
26272;DHT22;13997;48.902;12.472;2023-03-01T16:48:01;179.50;2252.80
26272;DHT22;13997;48.902;12.472;2023-03-01T16:50:27;179.40;2252.80
26272;DHT22;13997;48.902;12.472;2023-03-01T16:52:53;179.30;2252.80
26272;DHT22;13997;48.902;12.472;2023-03-01T16:55:18;179.20;2252.80
26272;DHT22;13997;48.902;12.472;2023-03-01T16:57:44;179.20;2252.80